WetterOnline ( http://www.wetteronline.de )

Wetter aktuell Ludwigsburg

Aktuelles Wetter: Schnarrenberg/Stuttgart (315m)

6-stündlich | Neueste Meldungen
Ortszeit Temperatur Wetter
Do, 13.12. 1:00 -0.3° C bewölkt
Mi, 12.12. 19:00 2.2° C bedeckt
Mi, 12.12. 13:00 2.3° C bewölkt
Mi, 12.12. 7:00 0.8° C leichter Schneefall
Mi, 12.12. 1:00 1.0° C bewölkt
Di, 11.12. 19:00 2.9° C bedeckt
Di, 11.12. 13:00 3.6° C bedeckt
Di, 11.12. 7:00 2.5° C bewölkt
Ortszeit Temperatur Wetter
Do, 13.12. 6:30 -0.9° C bedeckt
Do, 13.12. 6:20 -0.9° C bedeckt
Do, 13.12. 6:10 -0.9° C bedeckt
Do, 13.12. 6:00 -1.0° C bedeckt
Do, 13.12. 5:50 -1.0° C bedeckt
Do, 13.12. 5:40 -1.0° C bedeckt
Do, 13.12. 5:30 -1.2° C bedeckt
Do, 13.12. 5:00 -1.2° C bewölkt
Do, 13.12. 4:30 -1.0° C bedeckt
Do, 13.12. 4:00 -0.9° C wolkig
Do, 13.12. 3:30 -0.7° C wolkig
Ortszeit Relative Feuchte Sichtweite
Do, 13.12. 1:00 86% 40 km
Mi, 12.12. 19:00 85% 21 km
Mi, 12.12. 13:00 80% 22 km
Mi, 12.12. 7:00 92% 19 km
Mi, 12.12. 1:00 88% 30 km
Di, 11.12. 19:00 75% 45 km
Di, 11.12. 13:00 74% 50 km
Di, 11.12. 7:00 78% 55 km
Ortszeit Relative Feuchte Sichtweite
Do, 13.12. 6:30 84% 28 km
Do, 13.12. 6:20 84% -
Do, 13.12. 6:10 84% -
Do, 13.12. 6:00 84% 28 km
Do, 13.12. 5:50 84% -
Do, 13.12. 5:40 85% -
Do, 13.12. 5:30 86% 25 km
Do, 13.12. 5:00 87% 27 km
Do, 13.12. 4:30 87% 30 km
Do, 13.12. 4:00 86% 29 km
Do, 13.12. 3:30 85% 35 km
Ortszeit Niederschlagsmenge Niederschlagsart
Do, 13.12. 1:00 0.0 l/m2 in 6 Std. -
Mi, 12.12. 19:00 0.1 l/m2 in 12 Std. Schnee, Regen
Mi, 12.12. 13:00 0.1 l/m2 in 6 Std. Schnee, Sprühregen
Mi, 12.12. 7:00 0.3 l/m2 in 12 Std. Schnee, Regen
Mi, 12.12. 1:00 0.3 l/m2 in 6 Std. Schnee, Regen
Di, 11.12. 19:00 0.1 l/m2 in 12 Std. Regen
Di, 11.12. 13:00 0.1 l/m2 in 6 Std. Regen
Di, 11.12. 7:00 2 l/m2 in 12 Std. Sprühregen
Ortszeit Niederschlagsmenge Niederschlagsart
Do, 13.12. 6:30 0.0 l/m2 in 1 Std. -
Do, 13.12. 6:20 keine Meldung -
Do, 13.12. 6:10 keine Meldung -
Do, 13.12. 6:00 0.0 l/m2 in 1 Std. -
Do, 13.12. 5:50 keine Meldung -
Do, 13.12. 5:40 keine Meldung -
Do, 13.12. 5:30 0.0 l/m2 in 1 Std. -
Do, 13.12. 5:00 0.0 l/m2 in 1 Std. -
Do, 13.12. 4:30 0.0 l/m2 in 1 Std. -
Do, 13.12. 4:00 0.0 l/m2 in 1 Std. -
Do, 13.12. 3:30 0.0 l/m2 in 1 Std. -
Ortszeit Stärke Spitze Richtung
km/h Bft. km/h Grad Sektor
Do, 13.12. 1:00 9 2 20 50° NO
Mi, 12.12. 19:00 7 2 14 60° NO
Mi, 12.12. 13:00 4 1 14 40° NO
Mi, 12.12. 7:00 0 0 11 - -
Mi, 12.12. 1:00 7 2 25 270° W
Di, 11.12. 19:00 9 2 30 280° W
Di, 11.12. 13:00 18 3 36 290° W
Di, 11.12. 7:00 18 3 32 270° W
Ortszeit Stärke Spitze Richtung
km/h Bft. km/h Grad Sektor
Do, 13.12. 6:30 7 2 14 40° NO
Do, 13.12. 6:20 7 2 - 40° NO
Do, 13.12. 6:10 7 2 - 60° NO
Do, 13.12. 6:00 6 1 11 10° N
Do, 13.12. 5:50 6 1 - 10° N
Do, 13.12. 5:40 4 1 - 300° NW
Do, 13.12. 5:30 4 1 11 360° N
Do, 13.12. 5:00 9 2 19 40° NO
Do, 13.12. 4:30 11 2 18 50° NO
Do, 13.12. 4:00 9 2 15 50° NO
Do, 13.12. 3:30 11 2 14 60° NO
Ortszeit Untergrenze Bedeckung Gattung
total tief tief mittel hoch
Do, 13.12. 1:00 1350 m 7/8 7/8 - - -
Mi, 12.12. 19:00 1230 m 8/8 8/8 - - -
Mi, 12.12. 13:00 360 m 8/8 7/8 - - -
Mi, 12.12. 7:00 300 m 7/8 7/8 - - -
Mi, 12.12. 1:00 540 m 7/8 8/8 - - -
Di, 11.12. 19:00 810 m 8/8 8/8 - - -
Di, 11.12. 13:00 570 m 8/8 8/8 - - -
Di, 11.12. 7:00 720 m 7/8 7/8 - - -
Ortszeit Bedeckungsgrad in Achtel und Wolkenuntergrenze
Do, 13.12. 6:30 3(600m) 6(1470m) 8(1500m)
Do, 13.12. 6:20 3(600m) 6(1470m) 8(1500m)
Do, 13.12. 6:10 5(570m) 7(1470m) 8(1500m)
Do, 13.12. 6:00 8(540m)
Do, 13.12. 5:50 8(540m)
Do, 13.12. 5:40 7(540m) 8(1470m) 8(1500m)
Do, 13.12. 5:30 2(510m) 7(1500m) 8(1500m)
Do, 13.12. 5:00 3(1320m) 7(1500m)
Do, 13.12. 4:30 8(1440m)
Do, 13.12. 4:00 4(1500m) 6(1500m)
Do, 13.12. 3:30 6(1440m)
Ortszeit Luftdruck NN (hPa) Tendenz (hPa in 3 Std.)
Do, 13.12. 1:00 1022 - 0,7
Mi, 12.12. 19:00 1023 - 0,5
Mi, 12.12. 13:00 1024 - 0,7
Mi, 12.12. 7:00 1025 0,0
Mi, 12.12. 1:00 1025 + 0,1
Di, 11.12. 19:00 1025 + 0,5
Di, 11.12. 13:00 1024 - 0,5
Di, 11.12. 7:00 1024 + 0,1
Ortszeit Luftdruck NN (hPa) Tendenz (hPa in 3 Std.)
Do, 13.12. 6:30 1019 - 1,6
Do, 13.12. 6:20 1019 keine Meldung
Do, 13.12. 6:10 1019 keine Meldung
Do, 13.12. 6:00 1019 - 1,5
Do, 13.12. 5:50 1019 keine Meldung
Do, 13.12. 5:40 1019 keine Meldung
Do, 13.12. 5:30 1020 - 1,4
Do, 13.12. 5:00 1020 - 1,2
Do, 13.12. 4:30 1020 - 1,3
Do, 13.12. 4:00 1020 - 1,4
Do, 13.12. 3:30 1021 - 1,4
Ortszeit Schneehöhe (cm)
Do, 13.12. 1:00 0
Mi, 12.12. 19:00 0
Mi, 12.12. 13:00 0
Mi, 12.12. 7:00 0
Mi, 12.12. 1:00 0
Di, 11.12. 19:00 0
Di, 11.12. 13:00 0
Di, 11.12. 7:00 0
Ortszeit Schneehöhe (cm)
Do, 13.12. 6:30 0
Do, 13.12. 6:20 0
Do, 13.12. 6:10 0
Do, 13.12. 6:00 0
Do, 13.12. 5:50 0
Do, 13.12. 5:40 0
Do, 13.12. 5:30 0
Do, 13.12. 5:00 0
Do, 13.12. 4:30 0
Do, 13.12. 4:00 0
Do, 13.12. 3:30 0
Link zu dieser Seite / Seite empfehlen

Das Wetter in ...